Terminal Aerodrome Forecast
Issued by NWS

Home | Current Version | Previous Version | Text Only | Print | Product List | Glossary On
Versions: 1 2 3 4 5 6 7 8 9 10 11 12
000
FTUS42 KMLB 121720
TAFSFB
TAF
KSFB 121720Z 1218/1318 26014G22KT P6SM FEW040
     FM122300 24008KT P6SM FEW250
     FM130800 28008KT P6SM FEW030 SCT250
     FM131200 32009KT P6SM FEW250
     FM131500 35014KT P6SM SKC=

USA.gov is the U.S. government's official web portal to all federal, state and local government web resources and services.